Coloma, MI (49038)

6:58 PM EST on January 21, 2017 (GMT -0500)
East Paw Paw Lake | | Change Station
Active Advisory: Dense Fog Advisory

Elev 663 ft 42.21 °N, 86.25 °W | Updated 5 seconds ago

Partly Cloudy
Partly Cloudy
56.2 °F
Feels Like 56.2 °F
N
2.0
Wind Variable Wind from SSW
Gusts 3.0 mph

Today
High -- | Low -- °F
--% Chance of Precip.
Yesterday
High -- | Low -- °F
Precip. -- in
Pressure 29.55 in
Visibility 10.0 miles
Clouds Few 4800 ft
Scattered Clouds 6000 ft
Dew Point 50 °F
Humidity 81%
Rainfall 0.00 in
Snow Depth Not available.
8:07 AM 5:46 PM
Waning Crescent, 31% visible
METAR KBEH 212353Z AUTO 20006KT 10SM FEW048 SCT060 13/09 A2954 RMK AO2 SLP004 T01330089 10167 20133 53019
Pressure 29.55 in
Visibility 10.0 miles
Clouds Few 4800 ft
Scattered Clouds 6000 ft
Dew Point 50 °F
Humidity 81%
Rainfall 0.00 in
Snow Depth Not available.
8:07 AM 5:46 PM
Waning Crescent, 31% visible
METAR KBEH 212353Z AUTO 20006KT 10SM FEW048 SCT060 13/09 A2954 RMK AO2 SLP004 T01330089 10167 20133 53019

Get Your Daily Forecast Email!

Thanks for signing up!

Be on the lookout for a verification email in your inbox.

You'll start receiving the daily forecast at 8 AM.

×

10-Day Weather Forecast

Almanac

Astronomy

Jan. 21, 2017 Rise Set
Actual Time
Civil Twilight
Nautical Twilight
Astronomical Twilight
Moon
Length of Visible Light
Length of Day
Tomorrow will be .
, % of the Moon is Illuminated

Today's Extremes

State Highs State Lows

Community

WunderPhotos

Upload Photos

1,962,540 photos uploaded!

WunderBlog® & News

Nearby

Air Quality

  Air Quality AQ Index Pollutant
Not available.

Snow Depth

Station Depth Elevation

Earthquake Activity

City Distance Mag. Time & Date
Minimum magnitude displayed is 2.5.

Coastal Water Temperatures

Place Temperature

Stations

Nearby Weather Stations

Station Location Temp. Windchill Dew Point Humidity Wind Precip. Elev Updated Type
                   

Watches & Warnings

Dense Fog Advisory
Issued: 1:28 PM CST Jan. 21, 2017 – National Weather Service

... Dense fog advisory in effect from 1 am EST /midnight CST/ to
10 am EST /9 am CST/ Sunday...

The National Weather Service in northern Indiana has issued a
dense fog advisory... which is in effect from 1 am EST /midnight
CST/ to 10 am EST /9 am CST/ Sunday.

Hazardous weather...

* visibilities of one quarter of a mile or less are expected
   tonight into Sunday morning.

* Dense fog is expected to lift by late Sunday morning.

Impacts...

* travel is expected to be impacted overnight into Sunday
   morning.

Precautionary/preparedness actions...

A dense fog advisory means visibilities will frequently be
reduced to less than one quarter mile. If driving... slow down...
use your headlights... and leave plenty of distance ahead of you.